createdAt,value
2024-03-02T00:01:32.715Z,978.2
2024-03-02T00:06:52.554Z,978.2
2024-03-02T00:12:12.894Z,978.1
2024-03-02T00:22:51.441Z,978.2
2024-03-02T00:28:09.131Z,978.2
2024-03-02T00:38:47.605Z,978.4
2024-03-02T00:44:07.607Z,978.4
2024-03-02T00:54:45.993Z,978.4
2024-03-02T01:05:24.989Z,978.5
2024-03-02T01:10:43.782Z,978.5
2024-03-02T01:21:22.845Z,978.5
2024-03-02T01:26:42.267Z,978.4
2024-03-02T01:37:20.364Z,978.4
2024-03-02T01:47:59.021Z,978.4
2024-03-02T01:53:17.630Z,978.3
2024-03-02T02:03:56.825Z,978.3
2024-03-02T02:09:15.969Z,978.2
2024-03-02T02:19:55.579Z,978
2024-03-02T02:30:34.976Z,977.9
2024-03-02T02:35:53.832Z,978
2024-03-02T02:46:32.715Z,978
2024-03-02T02:51:53.331Z,978
2024-03-02T03:02:30.690Z,978
2024-03-02T03:07:50.230Z,978
2024-03-02T03:18:29.332Z,977.9
2024-03-02T03:29:08.401Z,978
2024-03-02T03:34:27.863Z,978
2024-03-02T03:45:06.671Z,978
2024-03-02T03:50:25.129Z,978.1
2024-03-02T03:55:44.632Z,978.1
2024-03-02T04:01:04.774Z,978.2
2024-03-02T04:11:43.012Z,978.3
2024-03-02T04:17:02.643Z,978.3
2024-03-02T04:27:41.193Z,978.2
2024-03-02T04:33:00.110Z,978.2
2024-03-02T04:43:39.914Z,978.2
2024-03-02T04:54:18.411Z,978.3
2024-03-02T05:05:09.062Z,978.4
2024-03-02T05:10:16.318Z,978.4
2024-03-02T05:15:35.301Z,978.4
2024-03-02T05:26:14.165Z,978.4
2024-03-02T05:36:53.653Z,978.4
2024-03-02T05:47:31.654Z,978.3
2024-03-02T05:52:51.573Z,978.4
2024-03-02T06:03:30.958Z,978.3
2024-03-02T06:08:49.819Z,978.2
2024-03-02T06:19:28.396Z,978.4
2024-03-02T06:30:06.925Z,978.4
2024-03-02T06:35:26.028Z,978.5
2024-03-02T06:46:04.371Z,978.5
2024-03-02T06:51:23.305Z,978.5
2024-03-02T07:02:02.178Z,978.5
2024-03-02T07:07:20.520Z,978.6
2024-03-02T07:17:59.176Z,978.5
2024-03-02T07:28:38.099Z,978.5
2024-03-02T07:33:56.076Z,978.6
2024-03-02T07:44:34.951Z,978.6
2024-03-02T08:00:31.719Z,978.5
2024-03-02T08:11:10.272Z,978.6
2024-03-02T08:16:29.828Z,978.6
2024-03-02T08:27:08.004Z,978.6
2024-03-02T08:32:27.219Z,978.6
2024-03-02T08:37:46.032Z,978.6
2024-03-02T08:43:05.311Z,978.6
2024-03-02T08:53:43.685Z,978.5
2024-03-02T08:59:02.601Z,978.6
2024-03-02T09:09:41.155Z,978.7
2024-03-02T09:25:39.607Z,978.6
2024-03-02T09:36:18.830Z,978.6
2024-03-02T09:41:37.964Z,978.6
2024-03-02T09:52:14.764Z,978.5
2024-03-02T09:57:33.969Z,978.5
2024-03-02T10:08:12.642Z,978.4
2024-03-02T10:13:31.587Z,978.3
2024-03-02T10:18:51.141Z,978.4
2024-03-02T10:24:10.428Z,978.3
2024-03-02T10:34:48.669Z,978.1
2024-03-02T10:40:07.629Z,978.2
2024-03-02T10:50:45.545Z,978.1
2024-03-02T10:56:04.123Z,978.1
2024-03-02T11:06:42.959Z,978.1
2024-03-02T11:17:22.149Z,978
2024-03-02T11:22:41.739Z,977.9
2024-03-02T11:33:19.844Z,977.7
2024-03-02T11:38:38.967Z,977.6
2024-03-02T11:49:17.390Z,977.4
2024-03-02T12:05:15.681Z,977.2
2024-03-02T12:15:54.388Z,977.1
2024-03-02T12:26:32.718Z,976.9
2024-03-02T12:31:52.348Z,976.8
2024-03-02T12:42:30.364Z,976.7
2024-03-02T12:58:28.076Z,976.4
2024-03-02T13:09:06.989Z,976.4
2024-03-02T13:14:26.394Z,976.4
2024-03-02T13:25:04.882Z,976.2
2024-03-02T13:30:23.866Z,976.1
2024-03-02T13:41:36.747Z,976
2024-03-02T13:46:55.441Z,976.1
2024-03-02T13:57:34.008Z,976.1
2024-03-02T14:02:52.980Z,976
2024-03-02T14:13:32.293Z,976
2024-03-02T14:29:30.075Z,976
2024-03-02T14:40:08.069Z,976
2024-03-02T14:45:27.370Z,976
2024-03-02T14:56:05.729Z,976
2024-03-02T15:01:24.977Z,975.8
2024-03-02T15:06:43.893Z,975.8
2024-03-02T15:12:02.576Z,975.8
2024-03-02T15:22:40.856Z,975.7
2024-03-02T15:28:00.043Z,975.8
2024-03-02T15:38:39.032Z,975.7
2024-03-02T15:43:57.825Z,975.6
2024-03-02T15:54:35.259Z,975.6
2024-03-02T16:05:14.055Z,975.5
2024-03-02T16:10:33.472Z,975.6
2024-03-02T16:22:27.708Z,975.5
2024-03-02T16:26:31.191Z,975.5
2024-03-02T16:37:09.367Z,975.6
2024-03-02T16:42:28.071Z,975.6
2024-03-02T16:53:06.666Z,975.8
2024-03-02T17:03:45.377Z,975.9
2024-03-02T17:09:04.664Z,975.9
2024-03-02T17:19:42.786Z,976
2024-03-02T17:25:02.793Z,976
2024-03-02T17:35:41.954Z,975.9
2024-03-02T17:46:20.398Z,975.9
2024-03-02T17:51:40.050Z,976
2024-03-02T18:02:18.535Z,976
2024-03-02T18:07:38.292Z,976
2024-03-02T18:18:15.691Z,976
2024-03-02T18:34:14.564Z,976
2024-03-02T18:44:53.553Z,976
2024-03-02T19:00:49.929Z,976.2
2024-03-02T19:11:28.602Z,976
2024-03-02T19:22:08.386Z,976
2024-03-02T19:27:26.580Z,976
2024-03-02T19:38:05.886Z,976.1
2024-03-02T19:48:43.835Z,976
2024-03-02T19:54:13.478Z,975.8
2024-03-02T20:10:02.198Z,975.6
2024-03-02T20:20:40.646Z,975.5
2024-03-02T20:25:59.137Z,975.5
2024-03-02T20:36:37.162Z,975.3
2024-03-02T20:47:16.117Z,975.2
2024-03-02T20:52:35.803Z,975.2
2024-03-02T21:03:14.535Z,975
2024-03-02T21:08:34.543Z,975
2024-03-02T21:19:13.476Z,975
2024-03-02T21:24:31.127Z,974.9
2024-03-02T21:35:10.253Z,975.1
2024-03-02T21:45:48.682Z,975.2
2024-03-02T21:51:08.351Z,975.1
2024-03-02T22:01:46.944Z,975.2
2024-03-02T22:07:06.293Z,975.2
2024-03-02T22:12:25.281Z,975.2
2024-03-02T22:17:44.951Z,975.1
2024-03-02T22:28:22.405Z,975
2024-03-02T22:33:41.928Z,975
2024-03-02T22:44:20.193Z,975
2024-03-02T22:49:39.574Z,974.9
2024-03-02T22:54:59.005Z,974.9
2024-03-02T23:00:19.101Z,974.9
2024-03-02T23:10:56.399Z,974.7
2024-03-02T23:16:15.864Z,974.7
2024-03-02T23:26:54.878Z,974.6
2024-03-02T23:32:15.221Z,974.5
2024-03-02T23:42:53.612Z,974.5
2024-03-02T23:58:51.589Z,974.3
